This is the latest recevied weather packets stored in our database for station/object YT1XN-8. If no packets are shown the sender has not sent any weather packets the latest 1 day(s).
| Time | Temp. | Humidity | Pressure | Rain* | Wind** | Luminosity | Snow |
|---|---|---|---|---|---|---|---|
| 1836274534 | 15.56° C | 82% | 1027.5 hPa | 0 mm | 0 m/s | - | - |
| 1836274448 | 15.56° C | 82% | 1027.5 hPa | 0 mm | 0 m/s | - | - |
| 1836274444 | 15.56° C | 83% | 1027.4 hPa | 0 mm | 0.45 m/s, 205° | - | - |
| 1836274417 | 15.56° C | 82% | 1027.5 hPa | 0 mm | 0 m/s | - | - |
| 1836274266 | 15.56° C | 83% | 1027.4 hPa | 0 mm | 0 m/s | - | - |
| 1836273874 | 16.11° C | 82% | 1027.6 hPa | 0 mm | 0 m/s | - | - |
| 1778034340 | 15° C | 68% | 1014.2 hPa | 0 mm | 0.89 m/s, 80° | - | - |
| 1778034041 | 15° C | 68% | 1014.2 hPa | 0 mm | 0.45 m/s, 80° | - | - |
| 1778033680 | 15° C | 68% | 1014.1 hPa | 0 mm | 0.45 m/s, 80° | - | - |
| 1778033442 | 15° C | 68% | 1014.2 hPa | 0 mm | 0.89 m/s, 63° | - | - |
| 1778033020 | 15° C | 67% | 1014.2 hPa | 0 mm | 0.89 m/s, 85° | - | - |
| 1778032842 | 15° C | 68% | 1014.2 hPa | 0 mm | 0.89 m/s, 81° | - | - |
| 1778032360 | 14.44° C | 67% | 1014.1 hPa | 0 mm | 0.45 m/s, 132° | - | - |
| 1778032242 | 14.44° C | 67% | 1014.2 hPa | 0 mm | 0.89 m/s, 132° | - | - |
| 1778031700 | 14.44° C | 68% | 1014.1 hPa | 0 mm | 0 m/s | - | - |
| 1778031642 | 14.44° C | 68% | 1014.2 hPa | 0 mm | 0 m/s | - | - |
| 1778031052 | 14.44° C | 68% | 1014.1 hPa | 0 mm | 0 m/s | - | - |
| 1778030439 | 14.44° C | 69% | 1014 hPa | 0 mm | 0.89 m/s, 132° | - | - |
| 1778029841 | 15° C | 66% | 1013.9 hPa | 0 mm | 0.45 m/s, 132° | - | - |
| 1778029779 | 15° C | 66% | 1013.8 hPa | 0 mm | 0 m/s | - | - |
| 1778029240 | 15° C | 66% | 1013.9 hPa | 0 mm | 0.45 m/s, 235° | - | - |
| 1778029119 | 15° C | 66% | 1013.8 hPa | 0 mm | 0 m/s | - | - |
| 1778028640 | 15° C | 66% | 1013.7 hPa | 0 mm | 0.89 m/s, 227° | - | - |
| 1778028459 | 15° C | 66% | 1013.9 hPa | 0 mm | 0.89 m/s, 227° | - | - |
| 1778028047 | 15° C | 67% | 1013.7 hPa | 0 mm | 0.89 m/s, 239° | - | - |
* Rain latest hour (hover to see other rain measurements)
** Current wind speed in m/s (hover to see current wind gust speed)